createdAt,value
2018-07-17T00:00:18.849Z,19.41
2018-07-17T00:02:48.033Z,19.32
2018-07-17T00:05:17.252Z,19.24
2018-07-17T00:07:46.464Z,19.19
2018-07-17T00:10:15.739Z,19.17
2018-07-17T00:12:45.024Z,19.17
2018-07-17T00:15:14.382Z,19.15
2018-07-17T00:17:43.448Z,19.16
2018-07-17T00:20:12.433Z,19.21
2018-07-17T00:22:41.537Z,19.22
2018-07-17T00:25:10.531Z,19.27
2018-07-17T00:27:40.511Z,19.25
2018-07-17T00:30:09.551Z,19.26
2018-07-17T00:32:38.564Z,19.21
2018-07-17T00:35:07.956Z,19.13
2018-07-17T00:37:36.919Z,19.10
2018-07-17T00:40:06.028Z,19.15
2018-07-17T00:42:35.073Z,19.16
2018-07-17T00:45:04.140Z,19.16
2018-07-17T00:47:33.158Z,19.14
2018-07-17T00:50:02.129Z,19.10
2018-07-17T00:52:31.148Z,19.12
2018-07-17T00:55:00.213Z,19.15
2018-07-17T00:57:29.350Z,19.19
2018-07-17T00:59:58.315Z,19.20
2018-07-17T01:02:32.444Z,19.22
2018-07-17T01:05:06.546Z,19.20
2018-07-17T01:07:40.725Z,19.13
2018-07-17T01:10:14.640Z,19.13
2018-07-17T01:12:42.646Z,19.16
2018-07-17T01:15:23.363Z,19.16
2018-07-17T01:17:52.455Z,19.13
2018-07-17T01:20:21.464Z,19.08
2018-07-17T01:22:50.452Z,19.04
2018-07-17T01:25:19.431Z,19.02
2018-07-17T01:27:48.407Z,18.95
2018-07-17T01:30:17.478Z,18.86
2018-07-17T01:32:46.488Z,18.84
2018-07-17T01:35:15.532Z,18.80
2018-07-17T01:37:44.562Z,18.75
2018-07-17T01:40:13.617Z,18.79
2018-07-17T01:42:42.645Z,18.78
2018-07-17T01:45:11.623Z,18.74
2018-07-17T01:47:40.593Z,18.68
2018-07-17T01:50:09.629Z,18.59
2018-07-17T01:52:38.704Z,18.52
2018-07-17T01:55:07.664Z,18.44
2018-07-17T01:57:36.624Z,18.44
2018-07-17T02:00:06.180Z,18.41
2018-07-17T02:02:35.191Z,18.35
2018-07-17T02:05:04.273Z,18.38
2018-07-17T02:07:33.239Z,18.37
2018-07-17T02:10:02.349Z,18.31
2018-07-17T02:12:31.676Z,18.33
2018-07-17T02:15:00.931Z,18.35
2018-07-17T02:17:30.171Z,18.28
2018-07-17T02:19:59.185Z,18.28
2018-07-17T02:22:28.232Z,18.31
2018-07-17T02:24:57.248Z,18.26
2018-07-17T02:27:26.364Z,18.23
2018-07-17T02:29:55.380Z,18.27
2018-07-17T02:32:24.352Z,18.28
2018-07-17T02:34:53.332Z,18.32
2018-07-17T02:37:22.349Z,18.34
2018-07-17T02:39:51.455Z,18.35
2018-07-17T02:42:20.481Z,18.43
2018-07-17T02:44:49.880Z,18.43
2018-07-17T02:47:18.849Z,18.48
2018-07-17T02:49:47.925Z,18.51
2018-07-17T02:52:16.901Z,18.45
2018-07-17T02:54:45.970Z,18.44
2018-07-17T02:57:14.966Z,18.41
2018-07-17T02:59:43.936Z,18.48
2018-07-17T03:02:12.957Z,18.47
2018-07-17T03:04:41.916Z,18.49
2018-07-17T03:07:11.158Z,18.54
2018-07-17T03:09:40.115Z,18.53
2018-07-17T03:12:09.254Z,18.53
2018-07-17T03:14:38.601Z,18.53
2018-07-17T03:17:07.969Z,18.54
2018-07-17T03:19:37.400Z,18.59
2018-07-17T03:22:06.601Z,18.66
2018-07-17T03:24:35.809Z,18.74
2018-07-17T03:27:05.361Z,18.79
2018-07-17T03:29:34.631Z,18.81
2018-07-17T03:32:04.024Z,18.90
2018-07-17T03:34:32.988Z,19.00
2018-07-17T03:37:02.032Z,19.06
2018-07-17T03:39:30.992Z,19.15
2018-07-17T03:42:00.053Z,19.16
2018-07-17T03:44:29.051Z,19.15
2018-07-17T03:46:58.044Z,19.19
2018-07-17T03:49:27.003Z,19.21
2018-07-17T03:51:56.036Z,19.24
2018-07-17T03:54:25.095Z,19.27
2018-07-17T03:56:54.076Z,19.32
2018-07-17T03:59:23.048Z,19.31
2018-07-17T04:01:52.056Z,19.26
2018-07-17T04:04:21.065Z,19.26
2018-07-17T04:06:50.147Z,19.31
2018-07-17T04:09:19.185Z,19.38
2018-07-17T04:11:48.217Z,19.45
2018-07-17T04:14:17.180Z,19.49
2018-07-17T04:17:00.409Z,19.49
2018-07-17T04:19:29.455Z,19.62
2018-07-17T04:21:58.525Z,19.66
2018-07-17T04:24:27.499Z,19.77
2018-07-17T04:26:56.472Z,19.88
2018-07-17T04:29:25.541Z,19.93
2018-07-17T04:31:54.540Z,19.92
2018-07-17T04:34:23.648Z,19.88
2018-07-17T04:36:52.597Z,19.85
2018-07-17T04:39:21.649Z,19.90
2018-07-17T04:41:50.631Z,19.80
2018-07-17T04:44:19.647Z,19.79
2018-07-17T04:46:48.631Z,19.78
2018-07-17T04:49:17.589Z,19.80
2018-07-17T04:51:46.664Z,19.88
2018-07-17T04:54:15.690Z,19.95
2018-07-17T04:56:44.980Z,20.09
2018-07-17T04:59:14.044Z,20.20
2018-07-17T05:01:43.167Z,20.31
2018-07-17T05:04:12.197Z,20.41
2018-07-17T05:06:41.277Z,20.59
2018-07-17T05:09:10.839Z,20.67
2018-07-17T05:11:40.104Z,20.76
2018-07-17T05:14:09.085Z,20.84
2018-07-17T05:16:38.087Z,20.95
2018-07-17T05:19:07.120Z,21.03
2018-07-17T05:21:36.124Z,21.13
2018-07-17T05:24:05.116Z,21.27
2018-07-17T05:26:34.339Z,21.42
2018-07-17T05:29:03.497Z,21.57
2018-07-17T05:31:32.676Z,21.75
2018-07-17T05:34:01.943Z,21.94
2018-07-17T05:36:31.020Z,22.14
2018-07-17T05:39:00.105Z,22.33
2018-07-17T05:41:29.495Z,22.59
2018-07-17T05:43:58.593Z,22.80
2018-07-17T05:46:27.711Z,22.97
2018-07-17T05:48:56.739Z,23.13
2018-07-17T05:51:25.758Z,23.23
2018-07-17T05:53:54.894Z,23.39
2018-07-17T05:56:24.008Z,23.50
2018-07-17T05:58:53.032Z,23.69
2018-07-17T06:01:22.180Z,23.88
2018-07-17T06:03:51.291Z,23.99
2018-07-17T06:06:20.384Z,24.08
2018-07-17T06:08:49.406Z,24.21
2018-07-17T06:11:18.427Z,24.37
2018-07-17T06:13:47.461Z,24.53
2018-07-17T06:16:16.564Z,24.69
2018-07-17T06:18:45.577Z,24.83
2018-07-17T06:21:14.549Z,24.96
2018-07-17T06:23:43.587Z,25.10
2018-07-17T06:26:12.576Z,25.19
2018-07-17T06:28:41.617Z,25.29
2018-07-17T06:31:10.596Z,25.47
2018-07-17T06:33:39.561Z,25.70
2018-07-17T06:36:09.432Z,25.91
2018-07-17T06:38:38.453Z,26.07
2018-07-17T06:41:07.622Z,26.20
2018-07-17T06:43:36.580Z,26.31
2018-07-17T06:46:05.880Z,26.49
2018-07-17T06:48:34.898Z,26.73
2018-07-17T06:51:03.920Z,26.93
2018-07-17T06:53:32.938Z,26.97
2018-07-17T06:56:01.967Z,27.09
2018-07-17T06:58:31.064Z,27.26
2018-07-17T07:01:00.052Z,27.48
2018-07-17T07:03:29.020Z,27.62
2018-07-17T07:05:58.020Z,27.78
2018-07-17T07:08:27.003Z,28.01
2018-07-17T07:10:56.026Z,28.28
2018-07-17T07:13:25.060Z,28.56
2018-07-17T07:15:54.121Z,28.89
2018-07-17T07:18:23.141Z,29.09
2018-07-17T07:20:52.132Z,29.32
2018-07-17T07:23:21.199Z,29.33
2018-07-17T07:25:50.261Z,29.14
2018-07-17T07:28:19.262Z,29.26
2018-07-17T07:30:48.413Z,29.74
2018-07-17T07:33:17.569Z,30.15
2018-07-17T07:35:46.661Z,30.40
2018-07-17T07:38:15.697Z,30.29
2018-07-17T07:40:44.724Z,30.17
2018-07-17T07:43:13.672Z,30.18
2018-07-17T07:45:42.623Z,30.34
2018-07-17T07:48:11.604Z,30.65
2018-07-17T07:50:40.572Z,30.94
2018-07-17T07:53:09.604Z,31.08
2018-07-17T07:55:38.642Z,31.28
2018-07-17T07:58:07.867Z,31.46
2018-07-17T08:00:36.847Z,31.62
2018-07-17T08:03:05.934Z,31.62
2018-07-17T08:05:34.945Z,31.43
2018-07-17T08:08:03.959Z,31.33
2018-07-17T08:10:33.036Z,31.18
2018-07-17T08:13:01.996Z,31.22
2018-07-17T08:15:31.092Z,31.40
2018-07-17T08:18:00.148Z,31.27
2018-07-17T08:20:29.107Z,31.20
2018-07-17T08:22:58.153Z,31.39
2018-07-17T08:25:27.206Z,31.54
2018-07-17T08:27:56.182Z,31.77
2018-07-17T08:30:25.732Z,32.05
2018-07-17T08:32:54.844Z,32.28
2018-07-17T08:35:23.903Z,32.32
2018-07-17T08:37:52.871Z,32.73
2018-07-17T08:40:21.928Z,32.90
2018-07-17T08:42:50.928Z,33.10
2018-07-17T08:45:19.936Z,33.28
2018-07-17T08:47:48.948Z,33.71
2018-07-17T08:50:18.038Z,33.93
2018-07-17T08:52:47.008Z,34.01
2018-07-17T08:55:15.968Z,34.30
2018-07-17T08:57:44.944Z,34.23
2018-07-17T09:00:14.323Z,33.17
2018-07-17T09:02:43.385Z,32.34
2018-07-17T09:05:12.415Z,32.06
2018-07-17T09:07:41.520Z,32.18
2018-07-17T09:10:10.731Z,31.95
2018-07-17T09:12:39.756Z,31.63
2018-07-17T09:15:08.780Z,31.62
2018-07-17T09:17:37.813Z,31.85
2018-07-17T09:20:07.001Z,32.19
2018-07-17T09:22:36.110Z,32.46
2018-07-17T09:25:05.441Z,32.73
2018-07-17T09:27:34.407Z,33.15
2018-07-17T09:30:03.461Z,33.28
2018-07-17T09:32:32.432Z,33.61
2018-07-17T09:35:01.456Z,32.74
2018-07-17T09:37:30.741Z,32.03
2018-07-17T09:39:59.717Z,31.78
2018-07-17T09:42:28.817Z,32.38
2018-07-17T09:44:57.798Z,32.81
2018-07-17T09:47:26.945Z,32.87
2018-07-17T09:49:55.912Z,32.91
2018-07-17T09:52:24.942Z,32.95
2018-07-17T09:54:53.924Z,32.91
2018-07-17T09:57:22.894Z,32.58
2018-07-17T09:59:51.932Z,32.49
2018-07-17T10:02:25.985Z,32.71
2018-07-17T10:04:55.030Z,32.77
2018-07-17T10:07:24.100Z,33.02
2018-07-17T10:09:53.078Z,33.44
2018-07-17T10:12:22.454Z,33.83
2018-07-17T10:14:51.684Z,33.59
2018-07-17T10:17:20.684Z,33.57
2018-07-17T10:19:53.470Z,33.83
2018-07-17T10:22:22.603Z,33.96
2018-07-17T10:24:51.673Z,33.68
2018-07-17T10:27:20.765Z,33.54
2018-07-17T10:29:49.816Z,33.43
2018-07-17T10:32:18.786Z,33.29
2018-07-17T10:34:47.841Z,33.31
2018-07-17T10:37:16.880Z,33.23
2018-07-17T10:39:46.084Z,33.08
2018-07-17T10:42:15.164Z,32.85
2018-07-17T10:44:44.129Z,32.81
2018-07-17T10:47:13.227Z,33.04
2018-07-17T10:49:42.204Z,33.02
2018-07-17T10:52:11.238Z,32.88
2018-07-17T10:54:40.271Z,32.46
2018-07-17T10:57:09.364Z,32.19
2018-07-17T10:59:38.420Z,31.94
2018-07-17T11:02:07.521Z,31.61
2018-07-17T11:04:36.569Z,31.28
2018-07-17T11:07:05.668Z,31.03
2018-07-17T11:09:34.635Z,30.65
2018-07-17T11:12:03.761Z,30.53
2018-07-17T11:14:32.844Z,30.41
2018-07-17T11:17:01.838Z,30.14
2018-07-17T11:19:30.871Z,30.06
2018-07-17T11:21:59.857Z,30.01
2018-07-17T11:24:28.832Z,29.74
2018-07-17T11:26:57.864Z,29.54
2018-07-17T11:29:26.832Z,29.36
2018-07-17T11:31:56.027Z,29.15
2018-07-17T11:34:25.145Z,29.01
2018-07-17T11:36:54.192Z,28.89
2018-07-17T11:39:23.276Z,28.78
2018-07-17T11:41:52.432Z,28.69
2018-07-17T11:44:21.407Z,28.61
2018-07-17T11:46:50.365Z,28.61
2018-07-17T11:49:19.509Z,28.60
2018-07-17T11:51:48.965Z,28.57
2018-07-17T11:54:17.951Z,28.46
2018-07-17T11:56:46.928Z,28.40
2018-07-17T11:59:15.930Z,28.37
2018-07-17T12:01:44.921Z,28.46
2018-07-17T12:04:14.278Z,28.53
2018-07-17T12:06:43.432Z,28.44
2018-07-17T12:09:12.405Z,28.51
2018-07-17T12:11:41.636Z,28.42
2018-07-17T12:14:10.623Z,28.34
2018-07-17T12:16:39.592Z,28.34
2018-07-17T12:19:08.688Z,28.37
2018-07-17T12:21:37.651Z,28.37
2018-07-17T12:24:06.760Z,28.23
2018-07-17T12:26:35.729Z,27.92
2018-07-17T12:29:04.845Z,27.23
2018-07-17T12:31:33.824Z,26.52
2018-07-17T12:34:02.848Z,26.10
2018-07-17T12:36:31.860Z,25.92
2018-07-17T12:39:00.823Z,26.01
2018-07-17T12:41:30.000Z,26.20
2018-07-17T12:43:59.245Z,26.15
2018-07-17T12:46:28.226Z,26.24
2018-07-17T12:48:57.416Z,26.49
2018-07-17T12:51:26.711Z,26.65
2018-07-17T12:53:56.168Z,26.90
2018-07-17T12:56:25.566Z,27.09
2018-07-17T12:58:54.589Z,27.57
2018-07-17T13:01:23.616Z,27.88
2018-07-17T13:03:52.687Z,28.18
2018-07-17T13:06:21.683Z,28.38
2018-07-17T13:08:50.655Z,28.02
2018-07-17T13:11:19.780Z,27.97
2018-07-17T13:13:48.772Z,27.96
2018-07-17T13:16:17.774Z,28.02
2018-07-17T13:18:46.873Z,28.18
2018-07-17T13:21:15.880Z,28.32
2018-07-17T13:23:44.933Z,28.48
2018-07-17T13:26:14.017Z,28.64
2018-07-17T13:28:43.272Z,28.83
2018-07-17T13:31:12.587Z,28.94
2018-07-17T13:33:41.656Z,28.78
2018-07-17T13:36:11.378Z,28.55
2018-07-17T13:38:40.378Z,28.37
2018-07-17T13:41:09.356Z,28.31
2018-07-17T13:43:38.447Z,28.50
2018-07-17T13:46:07.592Z,28.80
2018-07-17T13:48:36.619Z,29.08
2018-07-17T13:51:05.668Z,29.20
2018-07-17T13:53:34.730Z,29.37
2018-07-17T13:56:03.804Z,29.64
2018-07-17T13:58:32.785Z,29.59
2018-07-17T14:01:01.853Z,29.42
2018-07-17T14:03:30.961Z,29.38
2018-07-17T14:05:59.956Z,29.34
2018-07-17T14:08:28.969Z,29.49
2018-07-17T14:10:57.949Z,29.77
2018-07-17T14:13:27.129Z,29.68
2018-07-17T14:15:56.388Z,29.67
2018-07-17T14:18:25.428Z,29.50
2018-07-17T14:20:54.912Z,29.13
2018-07-17T14:23:24.048Z,28.71
2018-07-17T14:25:53.295Z,28.60
2018-07-17T14:28:22.332Z,28.58
2018-07-17T14:30:51.438Z,28.55
2018-07-17T14:33:20.578Z,28.49
2018-07-17T14:35:49.610Z,28.44
2018-07-17T14:38:18.732Z,28.35
2018-07-17T14:40:47.733Z,28.34
2018-07-17T14:43:16.764Z,28.24
2018-07-17T14:45:45.831Z,28.16
2018-07-17T14:48:14.884Z,28.05
2018-07-17T14:50:43.996Z,27.96
2018-07-17T14:53:13.000Z,27.85
2018-07-17T14:55:42.092Z,27.69
2018-07-17T14:58:11.157Z,27.48
2018-07-17T15:00:40.217Z,27.35
2018-07-17T15:03:09.411Z,27.17
2018-07-17T15:05:38.394Z,27.02
2018-07-17T15:08:07.486Z,26.69
2018-07-17T15:10:36.612Z,26.35
2018-07-17T15:13:05.644Z,26.06
2018-07-17T15:15:34.724Z,25.84
2018-07-17T15:18:04.089Z,25.79
2018-07-17T15:20:33.080Z,25.78
2018-07-17T15:23:02.105Z,25.69
2018-07-17T15:25:31.524Z,25.71
2018-07-17T15:28:00.830Z,25.86
2018-07-17T15:30:30.017Z,25.81
2018-07-17T15:32:59.402Z,25.77
2018-07-17T15:35:28.816Z,25.67
2018-07-17T15:37:58.153Z,25.57
2018-07-17T15:40:27.612Z,25.44
2018-07-17T15:42:57.049Z,25.27
2018-07-17T15:45:26.141Z,25.10
2018-07-17T15:47:55.191Z,24.94
2018-07-17T15:50:24.248Z,24.92
2018-07-17T15:52:53.316Z,24.83
2018-07-17T15:55:22.402Z,24.71
2018-07-17T15:57:51.411Z,24.70
2018-07-17T16:00:20.525Z,24.60
2018-07-17T16:02:49.491Z,24.49
2018-07-17T16:05:18.501Z,24.47
2018-07-17T16:07:47.512Z,24.40
2018-07-17T16:10:16.475Z,24.35
2018-07-17T16:12:45.544Z,24.28
2018-07-17T16:15:14.615Z,24.24
2018-07-17T16:17:43.670Z,24.26
2018-07-17T16:20:12.996Z,24.20
2018-07-17T16:22:42.197Z,24.17
2018-07-17T16:25:11.500Z,24.22
2018-07-17T16:27:40.596Z,24.26
2018-07-17T16:30:10.053Z,24.15
2018-07-17T16:32:39.452Z,24.10
2018-07-17T16:35:08.542Z,24.09
2018-07-17T16:37:37.617Z,24.10
2018-07-17T16:40:07.060Z,24.15
2018-07-17T16:42:36.395Z,24.14
2018-07-17T16:45:05.608Z,24.09
2018-07-17T16:47:34.945Z,24.12
2018-07-17T16:50:04.604Z,24.15
2018-07-17T16:52:34.050Z,24.13
2018-07-17T16:55:03.401Z,24.20
2018-07-17T16:57:32.516Z,24.21
2018-07-17T17:00:01.613Z,24.23
2018-07-17T17:02:30.644Z,24.24
2018-07-17T17:04:59.671Z,24.21
2018-07-17T17:07:28.663Z,24.11
2018-07-17T17:09:57.699Z,24.04
2018-07-17T17:12:26.725Z,24.03
2018-07-17T17:14:55.694Z,23.97
2018-07-17T17:17:25.061Z,23.64
2018-07-17T17:19:54.636Z,23.85
2018-07-17T17:22:23.752Z,23.76
2018-07-17T17:24:53.061Z,23.70
2018-07-17T17:27:22.191Z,23.67
2018-07-17T17:29:51.220Z,23.61
2018-07-17T17:32:20.207Z,23.54
2018-07-17T17:34:49.256Z,23.43
2018-07-17T17:37:18.297Z,23.38
2018-07-17T17:39:47.329Z,23.37
2018-07-17T17:42:16.303Z,23.28
2018-07-17T17:44:45.489Z,23.23
2018-07-17T17:47:14.460Z,23.18
2018-07-17T17:49:43.515Z,23.17
2018-07-17T17:52:12.564Z,23.19
2018-07-17T17:54:41.814Z,23.18
2018-07-17T17:57:10.828Z,23.15
2018-07-17T17:59:39.892Z,23.17
2018-07-17T18:02:09.162Z,23.14
2018-07-17T18:04:38.212Z,23.08
2018-07-17T18:07:07.392Z,22.99
2018-07-17T18:09:36.407Z,22.98
2018-07-17T18:12:05.504Z,22.50
2018-07-17T18:14:34.560Z,22.99
2018-07-17T18:17:03.874Z,23.03
2018-07-17T18:19:32.950Z,22.98
2018-07-17T18:22:09.035Z,22.98
2018-07-17T18:24:38.139Z,23.02
2018-07-17T18:27:07.256Z,23.00
2018-07-17T18:29:36.317Z,23.01
2018-07-17T18:32:05.377Z,23.01
2018-07-17T18:34:34.408Z,22.92
2018-07-17T18:37:03.411Z,22.96
2018-07-17T18:39:32.379Z,22.98
2018-07-17T18:42:01.414Z,23.00
2018-07-17T18:44:30.413Z,22.95
2018-07-17T18:46:59.446Z,22.93
2018-07-17T18:49:28.448Z,22.89
2018-07-17T18:51:57.588Z,22.88
2018-07-17T18:54:26.647Z,22.84
2018-07-17T18:56:55.669Z,22.82
2018-07-17T18:59:24.724Z,22.77
2018-07-17T19:01:53.718Z,22.71
2018-07-17T19:04:22.704Z,22.69
2018-07-17T19:06:51.837Z,22.59
2018-07-17T19:09:20.807Z,22.52
2018-07-17T19:11:49.817Z,22.52
2018-07-17T19:14:18.776Z,22.53
2018-07-17T19:16:47.887Z,22.48
2018-07-17T19:19:16.875Z,22.36
2018-07-17T19:21:45.900Z,22.34
2018-07-17T19:24:14.888Z,22.26
2018-07-17T19:26:43.867Z,22.22
2018-07-17T19:29:13.063Z,22.22
2018-07-17T19:31:42.020Z,22.24
2018-07-17T19:34:11.085Z,22.24
2018-07-17T19:36:40.060Z,22.25
2018-07-17T19:39:10.943Z,22.23
2018-07-17T19:41:39.996Z,22.24
2018-07-17T19:44:08.978Z,22.21
2018-07-17T19:46:37.980Z,22.29
2018-07-17T19:49:07.019Z,22.31
2018-07-17T19:51:36.144Z,22.30
2018-07-17T19:54:05.292Z,22.30
2018-07-17T19:56:34.439Z,22.26
2018-07-17T19:59:03.494Z,22.26
2018-07-17T20:01:32.533Z,22.25
2018-07-17T20:04:01.526Z,22.23
2018-07-17T20:06:30.580Z,22.22
2018-07-17T20:08:59.714Z,22.23
2018-07-17T20:11:28.700Z,22.23
2018-07-17T20:13:57.667Z,22.20
2018-07-17T20:16:26.787Z,22.23
2018-07-17T20:18:55.825Z,22.24
2018-07-17T20:21:24.958Z,22.24
2018-07-17T20:23:53.990Z,22.19
2018-07-17T20:26:23.032Z,22.16
2018-07-17T20:28:52.008Z,22.11
2018-07-17T20:31:21.100Z,22.09
2018-07-17T20:33:50.155Z,22.05
2018-07-17T20:36:19.114Z,21.95
2018-07-17T20:38:48.189Z,21.86
2018-07-17T20:41:17.180Z,21.80
2018-07-17T20:43:46.176Z,21.71
2018-07-17T20:46:15.182Z,21.66
2018-07-17T20:48:44.211Z,21.68
2018-07-17T20:51:13.225Z,21.69
2018-07-17T20:53:42.223Z,21.66
2018-07-17T20:56:11.272Z,21.67
2018-07-17T20:58:40.345Z,21.72
2018-07-17T21:01:09.674Z,21.75
2018-07-17T21:03:38.692Z,21.79
2018-07-17T21:06:07.967Z,21.84
2018-07-17T21:08:36.960Z,21.82
2018-07-17T21:11:06.099Z,21.79
2018-07-17T21:13:35.257Z,21.74
2018-07-17T21:16:04.355Z,21.74
2018-07-17T21:18:33.361Z,21.73
2018-07-17T21:21:02.427Z,21.72
2018-07-17T21:23:31.436Z,21.75
2018-07-17T21:26:00.493Z,21.80
2018-07-17T21:28:29.463Z,21.84
2018-07-17T21:30:58.580Z,21.85
2018-07-17T21:33:27.552Z,21.80
2018-07-17T21:35:56.542Z,21.82
2018-07-17T21:38:25.540Z,21.88
2018-07-17T21:40:54.512Z,21.84
2018-07-17T21:43:23.555Z,21.76
2018-07-17T21:45:52.572Z,21.69
2018-07-17T21:48:21.608Z,21.63
2018-07-17T21:50:50.576Z,21.61
2018-07-17T21:53:19.596Z,21.62
2018-07-17T21:55:48.649Z,21.59
2018-07-17T21:58:17.713Z,21.54
2018-07-17T22:00:46.726Z,21.48
2018-07-17T22:03:15.693Z,21.48
2018-07-17T22:05:44.872Z,21.47
2018-07-17T22:08:13.916Z,21.41
2018-07-17T22:10:42.936Z,21.39
2018-07-17T22:13:11.916Z,21.34
2018-07-17T22:15:40.953Z,21.34
2018-07-17T22:18:09.932Z,21.29
2018-07-17T22:20:39.298Z,21.19
2018-07-17T22:23:09.750Z,21.12
2018-07-17T22:25:44.688Z,21.09
2018-07-17T22:28:15.330Z,21.06
2018-07-17T22:30:45.703Z,21.03
2018-07-17T22:33:17.329Z,20.99
2018-07-17T22:35:47.621Z,20.93
2018-07-17T22:38:17.825Z,20.95
2018-07-17T22:40:48.721Z,20.95
2018-07-17T22:43:18.629Z,20.96
2018-07-17T22:45:48.408Z,20.97
2018-07-17T22:48:19.432Z,20.95
2018-07-17T22:50:48.905Z,20.98
2018-07-17T22:53:20.404Z,20.92
2018-07-17T22:55:51.305Z,20.90
2018-07-17T22:58:22.900Z,20.89
2018-07-17T23:00:51.896Z,20.87
2018-07-17T23:03:22.991Z,20.87
2018-07-17T23:05:52.825Z,20.88
2018-07-17T23:08:23.839Z,20.84
2018-07-17T23:10:54.981Z,20.82
2018-07-17T23:13:25.408Z,20.81
2018-07-17T23:15:55.606Z,20.83
2018-07-17T23:18:25.350Z,20.84
2018-07-17T23:20:55.176Z,20.89
2018-07-17T23:23:29.088Z,20.97
2018-07-17T23:26:03.394Z,20.96
2018-07-17T23:28:36.180Z,20.93
2018-07-17T23:31:09.404Z,20.92
2018-07-17T23:33:38.364Z,20.97
2018-07-17T23:36:07.597Z,20.95
2018-07-17T23:38:36.588Z,20.98
2018-07-17T23:41:05.584Z,20.99
2018-07-17T23:43:34.641Z,21.00
2018-07-17T23:46:03.608Z,20.99
2018-07-17T23:48:32.676Z,20.98
2018-07-17T23:51:01.665Z,21.01
2018-07-17T23:53:30.632Z,20.97
2018-07-17T23:55:59.620Z,20.99
2018-07-17T23:58:28.697Z,20.95
